createdAt,value
2023-01-12T00:02:18.181Z,100140.11
2023-01-12T00:04:46.210Z,100137.37
2023-01-12T00:07:16.040Z,100136.38
2023-01-12T00:09:44.018Z,100141.15
2023-01-12T00:12:12.507Z,100137.36
2023-01-12T00:14:40.605Z,100137.52
2023-01-12T00:17:09.214Z,100138.04
2023-01-12T00:19:38.946Z,100146.30
2023-01-12T00:22:13.176Z,100150.77
2023-01-12T00:24:45.721Z,100150.60
2023-01-12T00:27:19.656Z,100156.13
2023-01-12T00:29:49.450Z,100157.53
2023-01-12T00:32:20.208Z,100160.46
2023-01-12T00:34:48.422Z,100161.70
2023-01-12T00:37:16.264Z,100160.01
2023-01-12T00:39:53.061Z,100162.30
2023-01-12T00:42:47.076Z,100161.68
2023-01-12T00:45:24.427Z,100155.03
2023-01-12T00:47:53.780Z,100159.40
2023-01-12T00:50:22.173Z,100162.20
2023-01-12T00:52:49.970Z,100163.30
2023-01-12T00:55:17.794Z,100168.02
2023-01-12T00:57:45.900Z,100170.98
2023-01-12T01:00:14.507Z,100170.14
2023-01-12T01:02:42.480Z,100170.55
2023-01-12T01:05:10.376Z,100168.36
2023-01-12T01:07:38.378Z,100172.38
2023-01-12T01:10:07.188Z,100171.93
2023-01-12T01:12:35.312Z,100168.02
2023-01-12T01:15:03.728Z,100163.80
2023-01-12T01:17:31.727Z,100163.98
2023-01-12T01:20:00.192Z,100160.27
2023-01-12T01:22:28.266Z,100159.79
2023-01-12T01:24:56.120Z,100156.77
2023-01-12T01:27:24.017Z,100158.64
2023-01-12T01:29:55.411Z,100153.52
2023-01-12T01:32:23.321Z,100155.11
2023-01-12T01:34:51.178Z,100154.83
2023-01-12T01:37:20.084Z,100153.98
2023-01-12T01:39:48.300Z,100154.49
2023-01-12T01:42:28.692Z,100151.81
2023-01-12T01:44:59.938Z,100153.20
2023-01-12T01:47:42.796Z,100157.85
2023-01-12T01:50:19.956Z,100159.55
2023-01-12T01:52:57.813Z,100158.38
2023-01-12T01:55:57.167Z,100155.95
2023-01-12T01:58:31.780Z,100158.54
2023-01-12T02:00:59.749Z,100158.39
2023-01-12T02:03:29.403Z,100156.16
2023-01-12T02:05:58.233Z,100156.73
2023-01-12T02:08:33.872Z,100156.23
2023-01-12T02:11:03.228Z,100158.65
2023-01-12T02:13:50.558Z,100157.98
2023-01-12T02:16:25.605Z,100158.05
2023-01-12T02:19:06.118Z,100162.36
2023-01-12T02:21:58.474Z,100170.11
2023-01-12T02:24:58.596Z,100174.08
2023-01-12T02:27:38.424Z,100180.14
2023-01-12T02:30:34.174Z,100179.65
2023-01-12T02:36:25.441Z,100174.94
2023-01-12T02:39:15.426Z,100175.19
2023-01-12T02:42:12.106Z,100172.11
2023-01-12T02:44:48.891Z,100171.30
2023-01-12T02:47:25.741Z,100181.28
2023-01-12T02:49:59.568Z,100178.96
2023-01-12T02:52:32.132Z,100177.64
2023-01-12T02:55:02.043Z,100179.51
2023-01-12T02:57:33.312Z,100182.63
2023-01-12T03:00:03.533Z,100184.20
2023-01-12T03:02:32.960Z,100189.77
2023-01-12T03:05:00.852Z,100189.46
2023-01-12T03:07:47.049Z,100195.16
2023-01-12T03:10:20.821Z,100196.05
2023-01-12T03:12:51.424Z,100201.42
2023-01-12T03:15:19.812Z,100207.81
2023-01-12T03:17:58.660Z,100208.90
2023-01-12T03:20:32.939Z,100212.89
2023-01-12T03:23:13.005Z,100211.58
2023-01-12T03:25:44.530Z,100210.44
2023-01-12T03:28:31.886Z,100209.42
2023-01-12T03:31:08.905Z,100209.31
2023-01-12T03:33:42.701Z,100210.05
2023-01-12T03:36:11.172Z,100211.61
2023-01-12T03:38:50.637Z,100212.70
2023-01-12T03:41:28.184Z,100213.10
2023-01-12T03:44:01.922Z,100212.85
2023-01-12T03:46:56.003Z,100218.38
2023-01-12T03:49:32.080Z,100223.23
2023-01-12T03:52:02.744Z,100218.80
2023-01-12T03:54:32.356Z,100216.85
2023-01-12T03:57:02.257Z,100216.05
2023-01-12T03:59:30.836Z,100216.95
2023-01-12T04:02:48.646Z,100215.45
2023-01-12T04:05:17.119Z,100215.30
2023-01-12T04:07:45.226Z,100216.18
2023-01-12T04:10:13.225Z,100216.91
2023-01-12T04:12:41.364Z,100214.70
2023-01-12T04:15:10.019Z,100213.73
2023-01-12T04:17:38.243Z,100216.83
2023-01-12T04:20:06.776Z,100222.52
2023-01-12T04:22:43.823Z,100224.92
2023-01-12T04:25:14.284Z,100227.74
2023-01-12T04:27:50.466Z,100226.92
2023-01-12T04:34:39.519Z,100230.75
2023-01-12T04:37:07.417Z,100231.09
2023-01-12T04:39:35.280Z,100233.70
2023-01-12T04:42:03.545Z,100233.70
2023-01-12T04:44:35.127Z,100236.65
2023-01-12T04:47:02.915Z,100234.98
2023-01-12T04:49:30.733Z,100239.61
2023-01-12T04:51:59.303Z,100243.05
2023-01-12T04:54:27.323Z,100241.48
2023-01-12T04:56:55.256Z,100239.98
2023-01-12T04:59:23.124Z,100239.31
2023-01-12T05:01:51.047Z,100240.36
2023-01-12T05:04:19.051Z,100234.68
2023-01-12T05:06:46.990Z,100231.80
2023-01-12T05:09:33.586Z,100231.27
2023-01-12T05:12:01.616Z,100235.77
2023-01-12T05:14:29.749Z,100235.77
2023-01-12T05:16:59.607Z,100238.38
2023-01-12T05:19:27.526Z,100238.39
2023-01-12T05:21:55.354Z,100242.54
2023-01-12T05:24:23.215Z,100237.60
2023-01-12T05:26:51.092Z,100237.27
2023-01-12T05:29:18.982Z,100242.29
2023-01-12T05:31:46.917Z,100238.89
2023-01-12T05:34:14.834Z,100242.20
2023-01-12T05:36:42.611Z,100246.50
2023-01-12T05:39:10.504Z,100251.02
2023-01-12T05:41:58.334Z,100255.16
2023-01-12T05:44:26.648Z,100256.17
2023-01-12T05:46:54.587Z,100252.92
2023-01-12T05:49:22.492Z,100256.56
2023-01-12T05:51:50.380Z,100252.45
2023-01-12T05:54:18.164Z,100251.81
2023-01-12T05:56:46.630Z,100256.45
2023-01-12T05:59:15.527Z,100261.12
2023-01-12T06:01:44.047Z,100267.88
2023-01-12T06:04:12.037Z,100267.86
2023-01-12T06:06:39.946Z,100262.89
2023-01-12T06:09:07.961Z,100262.40
2023-01-12T06:11:54.447Z,100267.39
2023-01-12T06:14:22.356Z,100269.79
2023-01-12T06:16:50.283Z,100273.96
2023-01-12T06:19:18.141Z,100274.68
2023-01-12T06:21:46.012Z,100277.65
2023-01-12T06:24:14.154Z,100277.28
2023-01-12T06:26:45.131Z,100281.40
2023-01-12T06:29:13.741Z,100284.83
2023-01-12T06:31:41.692Z,100281.91
2023-01-12T06:34:09.842Z,100285.55
2023-01-12T06:36:38.811Z,100288.62
2023-01-12T06:39:06.742Z,100287.75
2023-01-12T06:41:53.529Z,100286.22
2023-01-12T06:44:21.599Z,100287.59
2023-01-12T06:46:49.426Z,100285.01
2023-01-12T06:49:17.306Z,100273.48
2023-01-12T06:51:47.672Z,100272.66
2023-01-12T06:54:17.748Z,100280.71
2023-01-12T06:56:46.750Z,100278.98
2023-01-12T06:59:14.690Z,100280.31
2023-01-12T07:01:42.678Z,100284.07
2023-01-12T07:04:10.943Z,100291.46
2023-01-12T07:06:39.065Z,100292.84
2023-01-12T07:09:06.933Z,100298.83
2023-01-12T07:11:34.877Z,100309.52
2023-01-12T07:14:04.415Z,100311.59
2023-01-12T07:16:33.562Z,100311.27
2023-01-12T07:19:01.426Z,100315.55
2023-01-12T07:21:29.236Z,100317.33
2023-01-12T07:23:57.096Z,100318.03
2023-01-12T07:26:33.915Z,100319.80
2023-01-12T07:29:02.241Z,100319.64
2023-01-12T07:31:30.622Z,100322.23
2023-01-12T07:33:58.390Z,100324.13
2023-01-12T07:36:26.358Z,100324.31
2023-01-12T07:38:54.370Z,100328.77
2023-01-12T07:41:41.127Z,100331.56
2023-01-12T07:44:09.772Z,100326.77
2023-01-12T07:46:37.769Z,100326.44
2023-01-12T07:49:05.832Z,100326.65
2023-01-12T07:51:33.946Z,100325.98
2023-01-12T07:54:02.190Z,100328.20
2023-01-12T07:56:30.147Z,100332.56
2023-01-12T07:58:58.130Z,100340.68
2023-01-12T08:01:26.358Z,100340.20
2023-01-12T08:03:54.634Z,100345.73
2023-01-12T08:06:22.527Z,100345.95
2023-01-12T08:08:52.935Z,100343.23
2023-01-12T08:11:21.000Z,100345.69
2023-01-12T08:13:53.852Z,100354.48
2023-01-12T08:16:27.711Z,100351.20
2023-01-12T08:19:16.666Z,100352.94
2023-01-12T08:21:50.143Z,100352.17
2023-01-12T08:24:23.608Z,100352.63
2023-01-12T08:26:56.643Z,100354.96
2023-01-12T08:29:32.136Z,100353.49
2023-01-12T08:32:04.968Z,100362.02
2023-01-12T08:34:35.539Z,100354.04
2023-01-12T08:37:08.125Z,100359.86
2023-01-12T08:39:36.502Z,100356.07
2023-01-12T08:42:04.652Z,100356.36
2023-01-12T08:44:36.218Z,100349.91
2023-01-12T08:47:06.476Z,100356.11
2023-01-12T08:49:34.449Z,100358.23
2023-01-12T08:52:02.403Z,100363.23
2023-01-12T08:54:30.564Z,100366.09
2023-01-12T08:56:58.537Z,100366.08
2023-01-12T08:59:26.333Z,100371.57
2023-01-12T09:01:54.158Z,100365.27
2023-01-12T09:04:22.595Z,100366.56
2023-01-12T09:06:50.553Z,100367.45
2023-01-12T09:09:20.184Z,100361.02
2023-01-12T09:11:49.527Z,100360.43
2023-01-12T09:14:17.589Z,100351.45
2023-01-12T09:16:45.558Z,100352.42
2023-01-12T09:19:13.639Z,100352.73
2023-01-12T09:21:42.204Z,100346.97
2023-01-12T09:24:11.955Z,100349.45
2023-01-12T09:26:46.058Z,100347.91
2023-01-12T09:29:14.827Z,100345.52
2023-01-12T09:31:45.081Z,100345.39
2023-01-12T09:34:13.896Z,100348.50
2023-01-12T09:36:42.439Z,100346.60
2023-01-12T09:39:26.854Z,100343.70
2023-01-12T09:42:17.687Z,100338.42
2023-01-12T09:45:08.811Z,100331.43
2023-01-12T09:48:01.301Z,100330.80
2023-01-12T09:50:33.654Z,100326.04
2023-01-12T09:53:12.925Z,100320.67
2023-01-12T09:55:49.950Z,100314.63
2023-01-12T09:58:30.059Z,100312.71
2023-01-12T10:01:01.474Z,100315.17
2023-01-12T10:03:38.474Z,100313.82
2023-01-12T10:06:08.872Z,100308.63
2023-01-12T10:08:41.625Z,100308.27
2023-01-12T10:11:30.440Z,100305.34
2023-01-12T10:14:01.392Z,100303.80
2023-01-12T10:16:38.450Z,100297.73
2023-01-12T10:19:30.736Z,100298.07
2023-01-12T10:22:37.288Z,100304.98
2023-01-12T10:28:37.806Z,100302.58
2023-01-12T10:31:16.242Z,100301.36
2023-01-12T10:34:02.853Z,100298.77
2023-01-12T10:36:31.944Z,100288.23
2023-01-12T10:39:03.587Z,100291.16
2023-01-12T10:41:36.319Z,100290.83
2023-01-12T10:44:13.821Z,100290.13
2023-01-12T10:46:42.408Z,100288.91
2023-01-12T10:49:20.781Z,100285.10
2023-01-12T10:51:57.692Z,100284.43
2023-01-12T10:54:29.254Z,100277.86
2023-01-12T10:57:03.018Z,100274.23
2023-01-12T10:59:34.248Z,100271.29
2023-01-12T11:04:45.481Z,100266.78
2023-01-12T11:07:14.664Z,100268.85
2023-01-12T11:09:44.485Z,100264.87
2023-01-12T11:12:24.459Z,100268.52
2023-01-12T11:15:10.722Z,100260.20
2023-01-12T11:17:38.672Z,100264.35
2023-01-12T11:20:25.211Z,100257.61
2023-01-12T11:22:56.582Z,100250.83
2023-01-12T11:25:26.474Z,100248.56
2023-01-12T11:28:18.843Z,100246.30
2023-01-12T11:30:52.852Z,100245.83
2023-01-12T11:33:25.876Z,100243.92
2023-01-12T11:35:56.675Z,100244.80
2023-01-12T11:38:32.072Z,100237.70
2023-01-12T11:40:59.928Z,100232.84
2023-01-12T11:43:49.170Z,100221.26
2023-01-12T11:46:26.672Z,100218.33
2023-01-12T11:49:14.829Z,100209.69
2023-01-12T11:51:43.936Z,100210.90
2023-01-12T11:54:16.092Z,100209.52
2023-01-12T11:57:07.711Z,100212.45
2023-01-12T11:59:53.864Z,100212.77
2023-01-12T12:02:52.688Z,100207.88
2023-01-12T12:05:45.545Z,100209.77
2023-01-12T12:08:25.127Z,100207.55
2023-01-12T12:10:59.298Z,100212.57
2023-01-12T12:13:40.488Z,100218.84
2023-01-12T12:16:26.537Z,100214.15
2023-01-12T12:19:23.318Z,100212.91
2023-01-12T12:22:08.070Z,100209.06
2023-01-12T12:25:10.378Z,100207.66
2023-01-12T12:27:44.091Z,100203.16
2023-01-12T12:30:33.754Z,100205.90
2023-01-12T12:33:35.202Z,100204.31
2023-01-12T12:36:11.991Z,100200.50
2023-01-12T12:38:44.708Z,100205.86
2023-01-12T12:41:47.304Z,100199.27
2023-01-12T12:44:57.174Z,100198.05
2023-01-12T12:47:34.117Z,100194.63
2023-01-12T12:50:04.274Z,100196.36
2023-01-12T12:52:36.154Z,100193.08
2023-01-12T12:55:06.682Z,100188.41
2023-01-12T12:58:02.252Z,100187.52
2023-01-12T13:00:42.636Z,100184.96
2023-01-12T13:03:10.810Z,100185.83
2023-01-12T13:05:47.565Z,100181.34
2023-01-12T13:08:22.691Z,100178.06
2023-01-12T13:10:55.179Z,100172.54
2023-01-12T13:13:32.518Z,100167.02
2023-01-12T13:16:15.760Z,100166.30
2023-01-12T13:19:05.699Z,100161.27
2023-01-12T13:21:42.546Z,100155.05
2023-01-12T13:24:10.393Z,100158.33
2023-01-12T13:26:43.272Z,100157.77
2023-01-12T13:29:23.556Z,100158.64
2023-01-12T13:31:56.653Z,100158.12
2023-01-12T13:34:36.499Z,100160.02
2023-01-12T13:37:31.504Z,100157.93
2023-01-12T13:40:12.256Z,100155.52
2023-01-12T13:42:58.954Z,100158.10
2023-01-12T13:45:27.111Z,100159.27
2023-01-12T13:47:55.115Z,100158.23
2023-01-12T13:50:25.860Z,100155.98
2023-01-12T13:52:58.755Z,100151.98
2023-01-12T13:55:30.761Z,100146.59
2023-01-12T13:58:00.223Z,100145.17
2023-01-12T14:00:32.269Z,100145.30
2023-01-12T14:03:01.639Z,100143.73
2023-01-12T14:05:59.507Z,100141.80
2023-01-12T14:08:57.827Z,100140.39
2023-01-12T14:11:58.921Z,100135.38
2023-01-12T14:14:54.705Z,100131.05
2023-01-12T14:17:47.008Z,100128.41
2023-01-12T14:20:19.542Z,100124.88
2023-01-12T14:22:47.901Z,100120.19
2023-01-12T14:25:26.037Z,100120.33
2023-01-12T14:27:56.134Z,100119.55
2023-01-12T14:30:27.381Z,100117.23
2023-01-12T14:32:55.500Z,100119.29
2023-01-12T14:35:25.583Z,100118.20
2023-01-12T14:37:58.103Z,100122.77
2023-01-12T14:40:30.820Z,100115.00
2023-01-12T14:43:19.815Z,100114.95
2023-01-12T14:46:14.477Z,100110.91
2023-01-12T14:48:43.988Z,100109.66
2023-01-12T14:51:36.372Z,100108.40
2023-01-12T14:54:07.569Z,100107.84
2023-01-12T14:56:48.069Z,100106.23
2023-01-12T14:59:23.450Z,100107.02
2023-01-12T15:02:16.922Z,100106.27
2023-01-12T15:04:56.776Z,100107.41
2023-01-12T15:07:37.447Z,100100.30
2023-01-12T15:10:14.628Z,100100.23
2023-01-12T15:12:44.192Z,100095.65
2023-01-12T15:15:16.069Z,100093.55
2023-01-12T15:18:04.318Z,100096.43
2023-01-12T15:20:55.931Z,100099.47
2023-01-12T15:23:52.414Z,100106.30
2023-01-12T15:26:21.687Z,100113.25
2023-01-12T15:28:49.688Z,100115.48
2023-01-12T15:31:28.169Z,100116.64
2023-01-12T15:33:57.132Z,100121.58
2023-01-12T15:36:25.524Z,100115.58
2023-01-12T15:38:53.847Z,100116.91
2023-01-12T15:41:47.850Z,100119.63
2023-01-12T15:44:18.662Z,100122.52
2023-01-12T15:46:47.211Z,100123.20
2023-01-12T15:49:15.614Z,100122.08
2023-01-12T15:51:49.138Z,100124.26
2023-01-12T15:54:21.387Z,100128.15
2023-01-12T15:56:49.288Z,100127.75
2023-01-12T15:59:17.155Z,100131.62
2023-01-12T16:01:48.321Z,100129.54
2023-01-12T16:04:42.292Z,100131.25
2023-01-12T16:07:10.864Z,100124.02
2023-01-12T16:09:38.745Z,100117.45
2023-01-12T16:12:07.946Z,100111.96
2023-01-12T16:14:36.119Z,100110.57
2023-01-12T16:17:04.369Z,100108.70
2023-01-12T16:19:32.315Z,100104.04
2023-01-12T16:22:00.170Z,100104.55
2023-01-12T16:24:30.955Z,100105.02
2023-01-12T16:26:59.004Z,100107.58
2023-01-12T16:29:26.848Z,100106.84
2023-01-12T16:31:54.746Z,100107.88
2023-01-12T16:34:23.624Z,100106.81
2023-01-12T16:36:51.758Z,100109.21
2023-01-12T16:39:19.712Z,100109.01
2023-01-12T16:41:47.870Z,100106.73
2023-01-12T16:44:15.943Z,100107.58
2023-01-12T16:46:44.057Z,100109.53
2023-01-12T16:49:12.080Z,100108.57
2023-01-12T16:51:39.959Z,100112.25
2023-01-12T16:54:08.359Z,100108.96
2023-01-12T16:56:36.598Z,100107.73
2023-01-12T16:59:04.618Z,100105.53
2023-01-12T17:01:33.390Z,100098.10
2023-01-12T17:04:01.643Z,100098.77
2023-01-12T17:06:30.370Z,100097.02
2023-01-12T17:09:02.175Z,100093.56
2023-01-12T17:11:30.893Z,100090.83
2023-01-12T17:13:59.504Z,100090.14
2023-01-12T17:16:31.031Z,100092.19
2023-01-12T17:18:59.153Z,100090.80
2023-01-12T17:21:27.267Z,100089.27
2023-01-12T17:23:55.623Z,100087.70
2023-01-12T17:26:24.057Z,100084.94
2023-01-12T17:28:55.242Z,100084.59
2023-01-12T17:31:23.767Z,100079.36
2023-01-12T17:33:52.030Z,100078.48
2023-01-12T17:36:19.991Z,100073.49
2023-01-12T17:38:47.935Z,100068.35
2023-01-12T17:41:35.696Z,100066.31
2023-01-12T17:44:05.456Z,100060.34
2023-01-12T17:46:34.033Z,100061.07
2023-01-12T17:49:04.822Z,100059.35
2023-01-12T17:51:34.435Z,100060.92
2023-01-12T17:54:04.561Z,100058.19
2023-01-12T17:56:35.711Z,100055.10
2023-01-12T17:59:05.416Z,100055.48
2023-01-12T18:01:36.142Z,100054.67
2023-01-12T18:04:04.811Z,100053.65
2023-01-12T18:06:33.015Z,100055.25
2023-01-12T18:09:01.129Z,100053.56
2023-01-12T18:11:31.263Z,100051.20
2023-01-12T18:14:00.771Z,100057.52
2023-01-12T18:16:29.470Z,100047.04
2023-01-12T18:18:58.008Z,100044.11
2023-01-12T18:21:28.473Z,100042.91
2023-01-12T18:23:57.243Z,100042.73
2023-01-12T18:26:30.725Z,100037.94
2023-01-12T18:28:58.944Z,100042.77
2023-01-12T18:31:31.432Z,100040.17
2023-01-12T18:34:03.785Z,100033.98
2023-01-12T18:36:37.889Z,100033.64
2023-01-12T18:39:08.099Z,100031.92
2023-01-12T18:41:55.690Z,100026.80
2023-01-12T18:44:24.405Z,100025.27
2023-01-12T18:47:11.205Z,100020.85
2023-01-12T18:49:40.037Z,100021.19
2023-01-12T18:52:29.887Z,100021.16
2023-01-12T18:54:58.997Z,100022.92
2023-01-12T18:57:30.297Z,100020.69
2023-01-12T19:04:57.712Z,100009.02
2023-01-12T19:07:39.827Z,100010.84
2023-01-12T19:10:08.540Z,100013.21
2023-01-12T19:12:36.454Z,100009.42
2023-01-12T19:15:23.543Z,100007.55
2023-01-12T19:17:51.340Z,100002.73
2023-01-12T19:20:21.214Z,100000.33
2023-01-12T19:23:08.045Z,99998.05
2023-01-12T19:26:14.845Z,99992.02
2023-01-12T19:28:42.937Z,99996.51
2023-01-12T19:31:12.543Z,100003.05
2023-01-12T19:33:42.849Z,100002.00
2023-01-12T19:36:16.845Z,100003.52
2023-01-12T19:38:50.640Z,99999.23
2023-01-12T19:41:38.634Z,99996.63
2023-01-12T19:44:06.860Z,99993.89
2023-01-12T19:46:34.734Z,99992.02
2023-01-12T19:49:02.787Z,99998.38
2023-01-12T19:51:30.685Z,99999.04
2023-01-12T19:53:58.678Z,99999.05
2023-01-12T19:56:27.027Z,99998.70
2023-01-12T19:58:54.911Z,99999.05
2023-01-12T20:01:23.890Z,99996.02
2023-01-12T20:03:51.881Z,99997.95
2023-01-12T20:06:19.799Z,99998.48
2023-01-12T20:08:47.652Z,99994.95
2023-01-12T20:11:16.430Z,99991.91
2023-01-12T20:13:44.619Z,99988.68
2023-01-12T20:16:13.364Z,99989.23
2023-01-12T20:18:43.646Z,99993.39
2023-01-12T20:21:12.974Z,99992.89
2023-01-12T20:23:40.897Z,99999.25
2023-01-12T20:26:09.277Z,99989.66
2023-01-12T20:28:37.339Z,99988.81
2023-01-12T20:31:10.358Z,99991.80
2023-01-12T20:33:38.503Z,99989.23
2023-01-12T20:36:11.174Z,99985.48
2023-01-12T20:38:40.780Z,99982.97
2023-01-12T20:41:10.952Z,99988.66
2023-01-12T20:43:38.989Z,99980.22
2023-01-12T20:46:11.878Z,99982.96
2023-01-12T20:48:44.761Z,99984.17
2023-01-12T20:51:15.929Z,99984.19
2023-01-12T20:53:44.304Z,99984.69
2023-01-12T20:56:12.466Z,99988.50
2023-01-12T20:58:40.563Z,99984.73
2023-01-12T21:01:13.891Z,99987.88
2023-01-12T21:03:43.193Z,99981.54
2023-01-12T21:06:16.551Z,99979.98
2023-01-12T21:08:46.666Z,99981.57
2023-01-12T21:11:17.482Z,99983.12
2023-01-12T21:13:45.953Z,99981.09
2023-01-12T21:16:18.281Z,99981.95
2023-01-12T21:18:48.133Z,99980.59
2023-01-12T21:21:16.719Z,99979.92
2023-01-12T21:23:44.696Z,99976.83
2023-01-12T21:26:12.701Z,99969.98
2023-01-12T21:28:40.792Z,99969.30
2023-01-12T21:31:12.389Z,99964.13
2023-01-12T21:33:40.388Z,99962.58
2023-01-12T21:36:10.865Z,99961.04
2023-01-12T21:41:59.079Z,99961.40
2023-01-12T21:44:27.850Z,99958.82
2023-01-12T21:46:55.701Z,99961.04
2023-01-12T21:49:24.877Z,99963.29
2023-01-12T21:51:52.885Z,99964.83
2023-01-12T21:54:20.831Z,99966.35
2023-01-12T21:56:48.900Z,99972.05
2023-01-12T21:59:16.780Z,99966.16
2023-01-12T22:01:45.639Z,99957.91
2023-01-12T22:04:13.552Z,99955.83
2023-01-12T22:06:41.840Z,99955.48
2023-01-12T22:09:09.895Z,99954.42
2023-01-12T22:11:37.856Z,99948.90
2023-01-12T22:14:05.698Z,99948.34
2023-01-12T22:16:33.683Z,99945.36
2023-01-12T22:19:01.615Z,99937.25
2023-01-12T22:21:29.669Z,99940.46
2023-01-12T22:23:57.468Z,99933.41
2023-01-12T22:26:28.293Z,99933.62
2023-01-12T22:28:56.357Z,99934.27
2023-01-12T22:31:25.652Z,99932.89
2023-01-12T22:34:02.870Z,99936.45
2023-01-12T22:36:34.628Z,99939.74
2023-01-12T22:39:03.004Z,99930.45
2023-01-12T22:41:31.086Z,99929.23
2023-01-12T22:43:59.592Z,99923.41
2023-01-12T22:46:28.311Z,99923.23
2023-01-12T22:48:59.334Z,99919.66
2023-01-12T22:51:29.401Z,99917.27
2023-01-12T22:53:58.094Z,99915.55
2023-01-12T22:56:26.410Z,99910.04
2023-01-12T22:58:56.429Z,99909.48
2023-01-12T23:01:25.605Z,99902.47
2023-01-12T23:03:58.357Z,99904.73
2023-01-12T23:06:27.118Z,99898.73
2023-01-12T23:08:54.996Z,99903.52
2023-01-12T23:11:26.318Z,99900.27
2023-01-12T23:13:55.066Z,99904.77
2023-01-12T23:16:23.612Z,99905.48
2023-01-12T23:18:55.399Z,99903.77
2023-01-12T23:21:27.956Z,99906.39
2023-01-12T23:23:58.135Z,99905.02
2023-01-12T23:26:29.035Z,99909.19
2023-01-12T23:29:00.232Z,99906.25
2023-01-12T23:31:32.110Z,99908.14
2023-01-12T23:34:01.407Z,99905.91
2023-01-12T23:36:30.641Z,99907.65
2023-01-12T23:39:04.175Z,99909.70
2023-01-12T23:41:34.985Z,99910.38
2023-01-12T23:44:05.885Z,99911.08
2023-01-12T23:46:37.201Z,99912.98
2023-01-12T23:49:05.717Z,99909.35
2023-01-12T23:51:33.690Z,99911.05
2023-01-12T23:54:02.032Z,99916.54
2023-01-12T23:56:34.792Z,99914.32
2023-01-12T23:59:02.729Z,99921.38
